createdAt,value
2023-04-17T00:02:27.176Z,31.00
2023-04-17T00:04:56.026Z,30.77
2023-04-17T00:07:24.610Z,31.40
2023-04-17T00:09:53.185Z,31.90
2023-04-17T00:12:21.803Z,33.93
2023-04-17T00:14:50.355Z,31.73
2023-04-17T00:17:19.007Z,32.17
2023-04-17T00:19:50.422Z,34.83
2023-04-17T00:22:18.876Z,34.70
2023-04-17T00:24:47.674Z,32.17
2023-04-17T00:27:16.516Z,31.93
2023-04-17T00:29:45.249Z,32.53
2023-04-17T00:32:13.824Z,30.37
2023-04-17T00:34:42.662Z,32.40
2023-04-17T00:37:12.737Z,35.40
2023-04-17T00:39:41.505Z,35.10
2023-04-17T00:42:09.909Z,31.13
2023-04-17T00:44:38.560Z,34.33
2023-04-17T00:47:07.362Z,31.53
2023-04-17T00:49:36.272Z,31.27
2023-04-17T00:52:04.887Z,33.93
2023-04-17T00:54:35.273Z,36.73
2023-04-17T00:57:04.859Z,29.37
2023-04-17T00:59:34.247Z,30.97
2023-04-17T01:02:02.778Z,30.90
2023-04-17T01:04:31.613Z,32.90
2023-04-17T01:07:00.957Z,31.93
2023-04-17T01:09:29.591Z,31.67
2023-04-17T01:12:31.939Z,34.13
2023-04-17T01:15:02.848Z,29.90
2023-04-17T01:17:31.327Z,32.43
2023-04-17T01:20:00.350Z,31.90
2023-04-17T01:22:28.939Z,32.40
2023-04-17T01:24:59.611Z,33.07
2023-04-17T01:27:28.256Z,32.67
2023-04-17T01:29:57.096Z,29.80
2023-04-17T01:32:25.797Z,30.57
2023-04-17T01:34:54.809Z,35.17
2023-04-17T01:37:23.712Z,31.90
2023-04-17T01:39:52.318Z,34.50
2023-04-17T01:42:22.662Z,34.80
2023-04-17T01:44:51.272Z,32.97
2023-04-17T01:47:20.173Z,31.83
2023-04-17T01:49:48.650Z,30.33
2023-04-17T01:52:17.266Z,33.83
2023-04-17T01:54:45.749Z,34.10
2023-04-17T01:57:17.103Z,32.73
2023-04-17T01:59:47.107Z,28.87
2023-04-17T02:02:15.763Z,29.07
2023-04-17T02:04:44.403Z,28.40
2023-04-17T02:07:12.883Z,26.63
2023-04-17T02:09:41.725Z,26.80
2023-04-17T02:12:10.478Z,25.97
2023-04-17T02:14:39.249Z,27.53
2023-04-17T02:17:09.447Z,24.87
2023-04-17T02:19:38.154Z,22.67
2023-04-17T02:22:06.746Z,25.37
2023-04-17T02:24:35.647Z,24.33
2023-04-17T02:27:04.996Z,25.30
2023-04-17T02:29:33.643Z,24.03
2023-04-17T02:32:02.404Z,23.53
2023-04-17T02:34:32.881Z,22.73
2023-04-17T02:37:01.875Z,25.97
2023-04-17T02:39:31.870Z,26.47
2023-04-17T02:42:02.406Z,25.93
2023-04-17T02:44:31.054Z,26.87
2023-04-17T02:46:59.792Z,24.93
2023-04-17T02:49:28.376Z,25.03
2023-04-17T02:51:58.817Z,25.13
2023-04-17T02:54:27.335Z,25.77
2023-04-17T02:56:58.622Z,23.10
2023-04-17T02:59:27.851Z,25.03
2023-04-17T03:02:00.197Z,27.50
2023-04-17T03:04:29.337Z,24.90
2023-04-17T03:06:59.404Z,24.87
2023-04-17T03:09:28.525Z,25.67
2023-04-17T03:11:57.374Z,29.37
2023-04-17T03:14:25.918Z,25.60
2023-04-17T03:16:54.897Z,27.17
2023-04-17T03:19:23.676Z,25.20
2023-04-17T03:21:52.085Z,25.50
2023-04-17T03:24:22.489Z,26.30
2023-04-17T03:26:51.273Z,26.33
2023-04-17T03:29:19.917Z,24.57
2023-04-17T03:31:49.070Z,24.43
2023-04-17T03:34:18.027Z,26.77
2023-04-17T03:36:47.054Z,29.70
2023-04-17T03:39:16.277Z,25.57
2023-04-17T03:41:46.670Z,25.53
2023-04-17T03:44:15.302Z,26.77
2023-04-17T03:46:43.897Z,25.57
2023-04-17T03:49:12.914Z,27.00
2023-04-17T03:51:42.744Z,27.00
2023-04-17T03:54:11.588Z,27.83
2023-04-17T03:56:40.450Z,25.43
2023-04-17T03:59:10.987Z,26.77
2023-04-17T04:01:39.811Z,25.40
2023-04-17T04:04:09.316Z,26.23
2023-04-17T04:06:38.027Z,29.30
2023-04-17T04:09:06.616Z,27.87
2023-04-17T04:11:35.180Z,25.03
2023-04-17T04:14:03.588Z,25.57
2023-04-17T04:16:33.712Z,25.37
2023-04-17T04:19:02.690Z,25.97
2023-04-17T04:21:31.183Z,26.00
2023-04-17T04:24:00.245Z,26.00
2023-04-17T04:26:28.707Z,24.13
2023-04-17T04:28:57.971Z,23.30
2023-04-17T04:31:29.684Z,24.40
2023-04-17T04:34:01.614Z,26.33
2023-04-17T04:36:31.293Z,26.33
2023-04-17T04:39:01.009Z,24.07
2023-04-17T04:41:30.213Z,23.27
2023-04-17T04:43:58.655Z,24.33
2023-04-17T04:46:27.556Z,24.57
2023-04-17T04:48:57.656Z,24.77
2023-04-17T04:51:28.583Z,21.53
2023-04-17T04:53:57.194Z,21.93
2023-04-17T04:56:25.948Z,21.20
2023-04-17T04:58:55.584Z,22.07
2023-04-17T05:01:24.210Z,22.03
2023-04-17T05:03:53.154Z,23.20
2023-04-17T05:06:21.746Z,25.87
2023-04-17T05:08:52.368Z,20.50
2023-04-17T05:11:20.869Z,19.97
2023-04-17T05:13:49.317Z,21.63
2023-04-17T05:16:18.136Z,22.27
2023-04-17T05:18:48.054Z,20.00
2023-04-17T05:21:16.961Z,20.40
2023-04-17T05:23:46.065Z,21.27
2023-04-17T05:26:16.416Z,24.57
2023-04-17T05:28:45.458Z,22.07
2023-04-17T05:31:14.337Z,22.13
2023-04-17T05:33:42.944Z,27.47
2023-04-17T05:36:11.650Z,23.67
2023-04-17T05:38:40.312Z,25.27
2023-04-17T05:41:08.873Z,24.60
2023-04-17T05:43:40.163Z,27.67
2023-04-17T05:46:08.738Z,25.03
2023-04-17T05:48:37.591Z,24.10
2023-04-17T05:51:06.903Z,28.13
2023-04-17T05:53:36.616Z,26.93
2023-04-17T05:56:05.605Z,24.67
2023-04-17T05:58:33.756Z,25.40
2023-04-17T06:01:06.500Z,29.27
2023-04-17T06:03:35.528Z,26.73
2023-04-17T06:06:04.371Z,29.10
2023-04-17T06:08:32.932Z,27.77
2023-04-17T06:11:01.758Z,32.10
2023-04-17T06:13:30.394Z,24.63
2023-04-17T06:15:59.171Z,25.00
2023-04-17T06:18:29.376Z,27.57
2023-04-17T06:20:57.952Z,21.70
2023-04-17T06:23:26.440Z,24.87
2023-04-17T06:25:55.111Z,22.83
2023-04-17T06:28:23.810Z,24.17
2023-04-17T06:30:52.196Z,24.57
2023-04-17T06:33:21.271Z,29.23
2023-04-17T06:35:51.581Z,26.90
2023-04-17T06:38:20.270Z,26.43
2023-04-17T06:40:50.816Z,26.13
2023-04-17T06:43:21.270Z,29.37
2023-04-17T06:45:50.077Z,26.73
2023-04-17T06:48:18.735Z,27.23
2023-04-17T06:50:47.289Z,30.10
2023-04-17T06:53:17.298Z,29.10
2023-04-17T06:55:45.898Z,32.67
2023-04-17T06:58:15.337Z,32.50
2023-04-17T07:00:44.561Z,34.30
2023-04-17T07:03:14.291Z,28.83
2023-04-17T07:05:46.968Z,33.63
2023-04-17T07:08:18.908Z,33.83
2023-04-17T07:10:47.509Z,37.83
2023-04-17T07:13:18.513Z,34.77
2023-04-17T07:15:52.433Z,36.63
2023-04-17T07:18:21.965Z,34.83
2023-04-17T07:20:50.630Z,32.13
2023-04-17T07:23:20.784Z,35.17
2023-04-17T07:25:49.713Z,33.53
2023-04-17T07:28:18.585Z,32.27
2023-04-17T07:30:47.588Z,31.93
2023-04-17T07:33:16.123Z,30.07
2023-04-17T07:35:45.310Z,33.23
2023-04-17T07:38:13.917Z,32.00
2023-04-17T07:40:44.701Z,38.47
2023-04-17T07:43:13.524Z,31.73
2023-04-17T07:45:42.158Z,30.33
2023-04-17T07:48:11.232Z,30.30
2023-04-17T07:50:39.836Z,40.97
2023-04-17T07:53:09.105Z,28.83
2023-04-17T07:55:37.879Z,30.47
2023-04-17T07:58:09.827Z,28.23
2023-04-17T08:00:38.582Z,31.57
2023-04-17T08:03:07.734Z,49.43
2023-04-17T08:05:36.932Z,29.83
2023-04-17T08:08:06.078Z,27.80
2023-04-17T08:10:35.362Z,28.87
2023-04-17T08:13:04.012Z,27.40
2023-04-17T08:15:35.135Z,27.70
2023-04-17T08:18:03.944Z,28.30
2023-04-17T08:20:33.052Z,27.20
2023-04-17T08:23:02.108Z,27.20
2023-04-17T08:25:31.030Z,27.63
2023-04-17T08:27:59.772Z,26.90
2023-04-17T08:30:28.617Z,27.73
2023-04-17T08:32:58.845Z,25.57
2023-04-17T08:35:27.499Z,24.80
2023-04-17T08:37:58.894Z,32.10
2023-04-17T08:40:28.148Z,26.97
2023-04-17T08:42:57.034Z,31.53
2023-04-17T08:45:25.809Z,25.57
2023-04-17T08:47:54.815Z,24.90
2023-04-17T08:50:24.907Z,26.10
2023-04-17T08:52:54.516Z,25.60
2023-04-17T08:55:25.800Z,25.47
2023-04-17T08:57:59.189Z,26.00
2023-04-17T09:00:33.045Z,29.03
2023-04-17T09:03:04.088Z,27.23
2023-04-17T09:05:37.310Z,28.70
2023-04-17T09:08:14.566Z,25.13
2023-04-17T09:10:44.734Z,29.13
2023-04-17T09:13:14.850Z,26.73
2023-04-17T09:15:44.636Z,27.00
2023-04-17T09:18:27.379Z,22.80
2023-04-17T09:20:58.130Z,25.40
2023-04-17T09:23:27.607Z,26.50
2023-04-17T09:26:10.293Z,25.50
2023-04-17T09:28:40.622Z,26.93
2023-04-17T09:31:26.842Z,25.73
2023-04-17T09:33:59.027Z,24.90
2023-04-17T09:36:31.084Z,26.20
2023-04-17T09:39:01.286Z,24.77
2023-04-17T09:41:32.079Z,25.57
2023-04-17T09:44:05.629Z,25.27
2023-04-17T09:46:46.021Z,25.97
2023-04-17T09:49:20.430Z,25.23
2023-04-17T09:51:51.293Z,25.43
2023-04-17T09:54:23.727Z,24.50
2023-04-17T09:56:56.012Z,24.60
2023-04-17T09:59:25.038Z,24.70
2023-04-17T10:01:55.096Z,26.83
2023-04-17T10:04:25.649Z,24.80
2023-04-17T10:06:57.617Z,26.03
2023-04-17T10:09:26.988Z,26.13
2023-04-17T10:11:57.061Z,24.47
2023-04-17T10:14:29.284Z,28.80
2023-04-17T10:16:58.266Z,25.67
2023-04-17T10:19:31.607Z,26.70
2023-04-17T10:22:34.127Z,25.10
2023-04-17T10:25:22.659Z,25.10
2023-04-17T10:27:58.494Z,23.93
2023-04-17T10:30:47.872Z,24.77
2023-04-17T10:33:49.434Z,23.10
2023-04-17T10:36:50.629Z,23.80
2023-04-17T10:39:21.996Z,23.47
2023-04-17T10:42:05.021Z,24.20
2023-04-17T10:44:35.331Z,22.33
2023-04-17T10:47:08.466Z,22.33
2023-04-17T10:49:51.981Z,20.30
2023-04-17T10:52:42.203Z,21.67
2023-04-17T10:55:16.433Z,21.30
2023-04-17T10:58:01.809Z,19.47
2023-04-17T11:00:34.172Z,20.60
2023-04-17T11:03:04.472Z,21.00
2023-04-17T11:05:36.161Z,21.60
2023-04-17T11:08:04.814Z,20.90
2023-04-17T11:10:38.155Z,20.97
2023-04-17T11:13:07.094Z,20.87
2023-04-17T11:15:36.918Z,19.90
2023-04-17T11:18:06.284Z,18.73
2023-04-17T11:20:38.865Z,20.63
2023-04-17T11:23:08.646Z,20.23
2023-04-17T11:25:39.028Z,18.47
2023-04-17T11:28:08.486Z,17.87
2023-04-17T11:30:40.826Z,17.47
2023-04-17T11:33:10.548Z,18.20
2023-04-17T11:35:41.196Z,17.40
2023-04-17T11:38:14.491Z,18.23
2023-04-17T11:40:49.453Z,16.90
2023-04-17T11:43:19.092Z,17.37
2023-04-17T11:45:49.631Z,16.20
2023-04-17T11:48:22.789Z,17.50
2023-04-17T11:50:51.936Z,17.10
2023-04-17T11:53:20.593Z,16.50
2023-04-17T11:55:50.648Z,18.23
2023-04-17T11:58:19.281Z,16.30
2023-04-17T12:01:05.240Z,16.10
2023-04-17T12:03:36.511Z,16.27
2023-04-17T12:06:07.492Z,16.97
2023-04-17T12:08:47.373Z,16.30
2023-04-17T12:11:26.248Z,16.23
2023-04-17T12:13:55.410Z,17.63
2023-04-17T12:16:26.320Z,19.77
2023-04-17T12:18:55.757Z,17.37
2023-04-17T12:21:25.185Z,18.00
2023-04-17T12:23:55.229Z,17.47
2023-04-17T12:26:26.088Z,19.60
2023-04-17T12:28:54.903Z,19.70
2023-04-17T12:31:23.676Z,17.20
2023-04-17T12:33:52.827Z,20.80
2023-04-17T12:36:21.310Z,18.23
2023-04-17T12:38:51.591Z,18.30
2023-04-17T12:41:23.020Z,18.00
2023-04-17T12:43:53.092Z,18.37
2023-04-17T12:46:21.951Z,18.13
2023-04-17T12:48:55.832Z,18.47
2023-04-17T12:51:24.335Z,17.87
2023-04-17T12:53:53.186Z,18.77
2023-04-17T12:56:23.496Z,18.30
2023-04-17T12:58:53.489Z,20.60
2023-04-17T13:01:22.340Z,19.37
2023-04-17T13:03:50.930Z,18.30
2023-04-17T13:06:21.698Z,19.07
2023-04-17T13:08:50.411Z,23.60
2023-04-17T13:11:19.019Z,17.90
2023-04-17T13:13:48.845Z,17.47
2023-04-17T13:16:19.308Z,17.27
2023-04-17T13:18:48.357Z,16.83
2023-04-17T13:21:17.128Z,18.40
2023-04-17T13:23:45.763Z,17.37
2023-04-17T13:26:14.515Z,18.23
2023-04-17T13:28:45.761Z,17.23
2023-04-17T13:31:14.662Z,16.03
2023-04-17T13:33:45.041Z,16.23
2023-04-17T13:36:14.212Z,17.87
2023-04-17T13:38:43.338Z,19.63
2023-04-17T13:41:12.230Z,16.83
2023-04-17T13:43:40.933Z,17.90
2023-04-17T13:46:09.955Z,17.70
2023-04-17T13:48:39.009Z,17.10
2023-04-17T13:51:09.175Z,16.50
2023-04-17T13:53:38.340Z,17.30
2023-04-17T13:56:08.274Z,17.37
2023-04-17T13:58:36.925Z,16.60
2023-04-17T14:01:05.347Z,17.27
2023-04-17T14:03:35.339Z,17.07
2023-04-17T14:06:05.586Z,18.70
2023-04-17T14:08:35.912Z,16.47
2023-04-17T14:11:04.527Z,16.23
2023-04-17T14:13:33.055Z,15.70
2023-04-17T14:16:01.630Z,16.60
2023-04-17T14:18:30.599Z,15.73
2023-04-17T14:20:59.044Z,16.17
2023-04-17T14:23:28.845Z,14.90
2023-04-17T14:25:58.865Z,14.30
2023-04-17T14:28:27.298Z,14.50
2023-04-17T14:30:55.748Z,14.27
2023-04-17T14:33:25.041Z,15.03
2023-04-17T14:35:56.950Z,13.93
2023-04-17T14:38:25.788Z,12.67
2023-04-17T14:40:54.390Z,11.70
2023-04-17T14:43:24.710Z,12.57
2023-04-17T14:45:53.443Z,11.57
2023-04-17T14:48:24.039Z,11.47
2023-04-17T14:50:53.373Z,11.13
2023-04-17T14:53:22.041Z,11.47
2023-04-17T14:55:53.428Z,10.93
2023-04-17T14:58:23.372Z,11.67
2023-04-17T15:00:51.823Z,14.93
2023-04-17T15:03:21.290Z,13.90
2023-04-17T15:05:50.340Z,15.13
2023-04-17T15:08:19.101Z,12.13
2023-04-17T15:10:51.624Z,13.33
2023-04-17T15:13:28.130Z,15.80
2023-04-17T15:15:57.010Z,14.37
2023-04-17T15:18:25.798Z,13.03
2023-04-17T15:20:56.343Z,13.13
2023-04-17T15:23:25.775Z,12.93
2023-04-17T15:25:57.551Z,12.13
2023-04-17T15:28:27.674Z,14.53
2023-04-17T15:31:00.134Z,12.93
2023-04-17T15:33:28.560Z,12.20
2023-04-17T15:35:58.631Z,10.87
2023-04-17T15:38:27.600Z,11.17
2023-04-17T15:40:57.007Z,11.37
2023-04-17T15:43:27.452Z,12.00
2023-04-17T15:45:59.108Z,11.57
2023-04-17T15:48:28.067Z,11.10
2023-04-17T15:50:56.618Z,10.97
2023-04-17T15:53:26.346Z,13.40
2023-04-17T15:55:55.069Z,11.60
2023-04-17T15:58:23.844Z,11.60
2023-04-17T16:00:53.814Z,12.13
2023-04-17T16:03:22.952Z,11.20
2023-04-17T16:05:53.989Z,9.77
2023-04-17T16:08:23.013Z,10.87
2023-04-17T16:10:51.583Z,9.70
2023-04-17T16:13:20.559Z,11.90
2023-04-17T16:15:49.653Z,9.27
2023-04-17T16:18:19.804Z,12.70
2023-04-17T16:20:48.282Z,12.40
2023-04-17T16:23:17.035Z,8.87
2023-04-17T16:25:47.507Z,9.40
2023-04-17T16:28:15.937Z,10.97
2023-04-17T16:30:44.474Z,10.20
2023-04-17T16:33:22.357Z,8.67
2023-04-17T16:35:52.625Z,13.80
2023-04-17T16:38:21.776Z,8.70
2023-04-17T16:40:50.393Z,9.90
2023-04-17T16:43:18.894Z,9.17
2023-04-17T16:45:47.602Z,8.37
2023-04-17T16:48:16.629Z,8.67
2023-04-17T16:50:47.721Z,8.73
2023-04-17T16:53:16.226Z,9.93
2023-04-17T16:55:44.609Z,8.40
2023-04-17T16:58:13.186Z,9.53
2023-04-17T17:00:42.087Z,7.77
2023-04-17T17:03:10.796Z,8.80
2023-04-17T17:05:39.690Z,11.50
2023-04-17T17:08:09.739Z,9.90
2023-04-17T17:10:38.359Z,9.00
2023-04-17T17:13:06.853Z,8.53
2023-04-17T17:15:35.572Z,9.23
2023-04-17T17:18:07.507Z,8.10
2023-04-17T17:20:38.989Z,8.33
2023-04-17T17:23:09.249Z,8.40
2023-04-17T17:25:37.865Z,8.30
2023-04-17T17:28:06.314Z,8.93
2023-04-17T17:30:35.086Z,8.17
2023-04-17T17:33:03.679Z,8.47
2023-04-17T17:35:34.521Z,10.23
2023-04-17T17:38:03.204Z,8.50
2023-04-17T17:40:33.653Z,8.90
2023-04-17T17:43:02.038Z,10.27
2023-04-17T17:45:30.846Z,7.70
2023-04-17T17:47:59.455Z,7.63
2023-04-17T17:50:28.057Z,8.37
2023-04-17T17:52:58.661Z,8.03
2023-04-17T17:55:27.871Z,7.73
2023-04-17T17:57:58.107Z,8.67
2023-04-17T18:00:26.934Z,8.93
2023-04-17T18:02:56.427Z,12.73
2023-04-17T18:05:25.520Z,9.60
2023-04-17T18:07:54.963Z,9.20
2023-04-17T18:10:23.448Z,12.57
2023-04-17T18:12:52.666Z,11.70
2023-04-17T18:15:23.009Z,9.07
2023-04-17T18:17:51.876Z,9.20
2023-04-17T18:20:23.706Z,9.90
2023-04-17T18:22:55.439Z,11.57
2023-04-17T18:25:24.385Z,9.43
2023-04-17T18:27:54.229Z,9.60
2023-04-17T18:30:24.793Z,8.90
2023-04-17T18:32:53.297Z,10.27
2023-04-17T18:35:21.854Z,9.93
2023-04-17T18:37:50.420Z,11.07
2023-04-17T18:40:19.067Z,9.73
2023-04-17T18:42:47.874Z,9.33
2023-04-17T18:45:16.739Z,12.87
2023-04-17T18:47:47.628Z,12.63
2023-04-17T18:50:16.305Z,11.03
2023-04-17T18:52:49.462Z,9.37
2023-04-17T18:55:19.489Z,10.50
2023-04-17T18:57:48.247Z,10.70
2023-04-17T19:00:17.149Z,9.40
2023-04-17T19:02:48.834Z,9.33
2023-04-17T19:05:17.916Z,10.87
2023-04-17T19:07:46.624Z,10.63
2023-04-17T19:10:15.447Z,10.17
2023-04-17T19:12:44.250Z,11.50
2023-04-17T19:15:13.505Z,11.40
2023-04-17T19:17:41.999Z,10.90
2023-04-17T19:20:17.190Z,11.73
2023-04-17T19:22:45.872Z,11.07
2023-04-17T19:25:14.714Z,9.97
2023-04-17T19:27:43.760Z,9.93
2023-04-17T19:30:13.128Z,11.20
2023-04-17T19:32:42.216Z,12.23
2023-04-17T19:35:13.467Z,11.40
2023-04-17T19:37:42.698Z,10.20
2023-04-17T19:40:24.143Z,10.83
2023-04-17T19:42:54.224Z,10.17
2023-04-17T19:45:22.936Z,10.27
2023-04-17T19:47:56.635Z,14.17
2023-04-17T19:50:28.083Z,11.70
2023-04-17T19:52:57.602Z,11.40
2023-04-17T19:55:26.429Z,10.17
2023-04-17T19:57:57.448Z,12.27
2023-04-17T20:00:25.954Z,11.10
2023-04-17T20:02:54.883Z,9.13
2023-04-17T20:05:23.844Z,10.23
2023-04-17T20:07:53.741Z,10.53
2023-04-17T20:10:22.679Z,12.50
2023-04-17T20:12:51.187Z,9.87
2023-04-17T20:15:22.088Z,11.13
2023-04-17T20:17:51.397Z,10.70
2023-04-17T20:20:20.188Z,9.80
2023-04-17T20:22:49.696Z,14.00
2023-04-17T20:25:19.652Z,10.60
2023-04-17T20:27:48.123Z,10.40
2023-04-17T20:30:17.203Z,11.97
2023-04-17T20:32:46.450Z,10.63
2023-04-17T20:35:15.399Z,11.20
2023-04-17T20:37:45.055Z,11.33
2023-04-17T20:40:14.705Z,12.03
2023-04-17T20:42:46.488Z,10.43
2023-04-17T20:45:15.268Z,11.20
2023-04-17T20:47:56.572Z,11.23
2023-04-17T20:50:26.395Z,14.23
2023-04-17T20:52:55.019Z,10.37
2023-04-17T20:55:24.423Z,11.13
2023-04-17T20:57:54.661Z,13.37
2023-04-17T21:00:23.472Z,13.37
2023-04-17T21:02:52.478Z,12.37
2023-04-17T21:05:21.630Z,11.80
2023-04-17T21:07:51.793Z,12.80
2023-04-17T21:10:22.061Z,11.83
2023-04-17T21:12:50.905Z,11.10
2023-04-17T21:15:21.267Z,13.00
2023-04-17T21:17:49.926Z,13.13
2023-04-17T21:20:18.792Z,12.20
2023-04-17T21:22:47.234Z,11.27
2023-04-17T21:25:16.141Z,12.10
2023-04-17T21:27:45.490Z,12.57
2023-04-17T21:30:14.442Z,13.90
2023-04-17T21:32:44.545Z,12.47
2023-04-17T21:35:13.110Z,13.70
2023-04-17T21:37:41.846Z,13.43
2023-04-17T21:40:11.533Z,13.30
2023-04-17T21:42:40.088Z,14.20
2023-04-17T21:45:09.839Z,14.90
2023-04-17T21:47:38.523Z,14.27
2023-04-17T21:50:10.973Z,14.90
2023-04-17T21:52:39.624Z,14.87
2023-04-17T21:55:09.126Z,15.30
2023-04-17T21:57:38.043Z,14.90
2023-04-17T22:00:11.891Z,14.57
2023-04-17T22:02:41.031Z,15.03
2023-04-17T22:05:12.974Z,15.70
2023-04-17T22:07:53.700Z,13.53
2023-04-17T22:10:23.664Z,16.13
2023-04-17T22:12:52.584Z,14.70
2023-04-17T22:15:21.586Z,14.87
2023-04-17T22:17:51.794Z,15.43
2023-04-17T22:20:22.293Z,15.43
2023-04-17T22:22:51.091Z,15.87
2023-04-17T22:25:20.954Z,15.70
2023-04-17T22:27:49.780Z,14.10
2023-04-17T22:30:18.451Z,15.50
2023-04-17T22:32:46.900Z,15.90
2023-04-17T22:35:16.142Z,15.60
2023-04-17T22:37:46.383Z,15.07
2023-04-17T22:40:17.318Z,15.47
2023-04-17T22:42:45.892Z,15.03
2023-04-17T22:45:14.703Z,14.97
2023-04-17T22:47:43.328Z,14.23
2023-04-17T22:50:14.610Z,15.37
2023-04-17T22:52:43.086Z,14.57
2023-04-17T22:55:13.419Z,13.77
2023-04-17T22:57:42.413Z,13.70
2023-04-17T23:00:11.957Z,14.87
2023-04-17T23:02:40.697Z,14.00
2023-04-17T23:05:11.097Z,14.77
2023-04-17T23:07:40.137Z,13.77
2023-04-17T23:10:09.659Z,13.43
2023-04-17T23:12:39.735Z,13.73
2023-04-17T23:15:09.700Z,14.87
2023-04-17T23:17:38.298Z,12.70
2023-04-17T23:20:07.796Z,13.40
2023-04-17T23:22:36.898Z,12.97
2023-04-17T23:25:06.067Z,13.20
2023-04-17T23:27:34.557Z,13.07
2023-04-17T23:30:05.838Z,12.23
2023-04-17T23:32:34.543Z,12.30
2023-04-17T23:35:03.488Z,12.03
2023-04-17T23:37:32.283Z,12.83
2023-04-17T23:40:01.562Z,12.97
2023-04-17T23:42:30.264Z,11.77
2023-04-17T23:44:59.174Z,12.07
2023-04-17T23:47:29.203Z,12.83
2023-04-17T23:49:57.669Z,14.13
2023-04-17T23:52:26.196Z,12.07
2023-04-17T23:54:54.788Z,10.73
2023-04-17T23:57:23.796Z,11.53
2023-04-17T23:59:52.670Z,10.77
